Hennepin, Oklahoma
Current Conditions -  °F | °C
As of 8:35 AM on Tuesday 21 Oct 2014 (Local Time) from KPVJ Reporting Station
Haze Haze  
Wind Chill: 58°   Ceiling: 700
Heat Index: 58°   Visibility: 1.2mi
Dew Point: 58°   Wind: 0mph
Humidity: 100%   Direction: NA
Pressure: 30.09"   Gusts: NA
Location:  34.51°N, 97.35°W
Report Text: KPVJ 211335Z AUTO 00000KT 1 1/4SM BR VV007 14/14 A3009 RMK AO2 T01440144
Loading
Personal Weather Stations






























Interactive Weather Map
Tropical Storm Tracking
New forecast layout! Learn more

10-Day Weather Forecast

Advertisements
Track Severe Weather on mobile